Terminal Aerodrome Forecast
Issued by NWS

Home | Current Version | Previous Version | Graphics & Text | Print | Product List | Glossary On
Versions: 1 2 3 4 5 6 7 8 9 10 11 12 13
199
FTUS41 KCLE 282320
TAFFDY
TAF
KFDY 282320Z 2900/2924 02008KT P6SM VCTS SCT045CB BKN080
     FM290200 VRB02KT P6SM SCT045 BKN200
      TEMPO 2906/2908 5SM BR
     FM290800 VRB02KT 4SM BR BKN200
     FM291300 03005KT 6SM HZ SCT045 BKN200
     FM291700 05006KT P6SM VCTS BKN045CB=

USA.gov is the U.S. government's official web portal to all federal, state and local government web resources and services.